createdAt,value
2018-09-05T00:01:13.794Z,27.20
2018-09-05T00:03:42.239Z,22.43
2018-09-05T00:06:10.744Z,22.83
2018-09-05T00:08:38.979Z,20.07
2018-09-05T00:11:07.164Z,22.47
2018-09-05T00:13:35.358Z,21.17
2018-09-05T00:16:03.545Z,21.23
2018-09-05T00:18:31.739Z,24.25
2018-09-05T00:20:59.971Z,24.65
2018-09-05T00:23:28.204Z,26.27
2018-09-05T00:25:56.394Z,22.73
2018-09-05T00:28:24.700Z,21.53
2018-09-05T00:30:52.873Z,22.77
2018-09-05T00:33:21.530Z,21.43
2018-09-05T00:35:49.897Z,24.27
2018-09-05T00:38:18.131Z,23.10
2018-09-05T00:40:46.319Z,21.10
2018-09-05T00:43:14.503Z,21.30
2018-09-05T00:45:42.704Z,26.37
2018-09-05T00:48:10.944Z,24.83
2018-09-05T00:50:39.160Z,22.00
2018-09-05T00:53:07.432Z,25.17
2018-09-05T00:55:35.631Z,23.83
2018-09-05T00:58:03.907Z,22.43
2018-09-05T01:00:32.135Z,21.53
2018-09-05T01:03:00.476Z,21.30
2018-09-05T01:05:28.786Z,20.73
2018-09-05T01:07:56.991Z,21.07
2018-09-05T01:10:25.248Z,22.03
2018-09-05T01:12:53.491Z,24.07
2018-09-05T01:15:21.723Z,27.03
2018-09-05T01:17:49.938Z,21.40
2018-09-05T01:20:18.442Z,19.93
2018-09-05T01:22:46.632Z,25.10
2018-09-05T01:25:14.943Z,22.80
2018-09-05T01:27:43.235Z,22.37
2018-09-05T01:30:11.473Z,25.07
2018-09-05T01:32:39.819Z,21.50
2018-09-05T01:35:08.060Z,23.23
2018-09-05T01:37:36.300Z,25.63
2018-09-05T01:40:04.505Z,21.83
2018-09-05T01:42:33.387Z,22.10
2018-09-05T01:45:01.562Z,22.77
2018-09-05T01:47:29.830Z,21.77
2018-09-05T01:49:58.122Z,27.50
2018-09-05T01:52:26.380Z,20.63
2018-09-05T01:54:54.668Z,19.83
2018-09-05T01:57:22.852Z,20.40
2018-09-05T01:59:51.050Z,19.83
2018-09-05T02:02:19.543Z,20.57
2018-09-05T02:04:47.774Z,21.00
2018-09-05T02:07:16.064Z,20.50
2018-09-05T02:09:44.291Z,20.43
2018-09-05T02:12:12.500Z,19.43
2018-09-05T02:14:40.690Z,19.43
2018-09-05T02:17:08.895Z,19.77
2018-09-05T02:19:37.086Z,19.03
2018-09-05T02:22:05.276Z,20.43
2018-09-05T02:24:33.488Z,23.53
2018-09-05T02:27:01.748Z,20.67
2018-09-05T02:29:29.935Z,19.97
2018-09-05T02:31:58.140Z,19.90
2018-09-05T02:34:26.354Z,20.73
2018-09-05T02:36:54.627Z,22.57
2018-09-05T02:39:22.900Z,22.10
2018-09-05T02:41:51.127Z,19.70
2018-09-05T02:44:20.126Z,21.93
2018-09-05T02:46:48.368Z,18.83
2018-09-05T02:49:16.666Z,20.47
2018-09-05T02:51:45.070Z,19.80
2018-09-05T02:54:13.277Z,19.77
2018-09-05T02:56:41.524Z,18.53
2018-09-05T02:59:09.752Z,18.47
2018-09-05T03:01:37.952Z,22.13
2018-09-05T03:04:06.718Z,18.23
2018-09-05T03:06:34.927Z,18.33
2018-09-05T03:09:03.183Z,18.20
2018-09-05T03:11:31.363Z,19.83
2018-09-05T03:13:59.557Z,18.53
2018-09-05T03:16:27.769Z,19.13
2018-09-05T03:18:56.053Z,19.30
2018-09-05T03:21:24.237Z,19.53
2018-09-05T03:23:52.492Z,19.30
2018-09-05T03:26:20.720Z,19.70
2018-09-05T03:28:48.906Z,17.53
2018-09-05T03:31:17.128Z,19.30
2018-09-05T03:33:45.401Z,19.07
2018-09-05T03:36:13.609Z,18.70
2018-09-05T03:38:41.913Z,18.40
2018-09-05T03:41:10.144Z,19.07
2018-09-05T03:43:38.356Z,18.90
2018-09-05T03:46:06.719Z,20.57
2018-09-05T03:48:34.935Z,18.97
2018-09-05T03:51:03.142Z,18.83
2018-09-05T03:53:31.381Z,18.20
2018-09-05T03:55:59.596Z,19.67
2018-09-05T03:58:27.799Z,17.37
2018-09-05T04:00:56.000Z,18.57
2018-09-05T04:03:24.228Z,18.10
2018-09-05T04:05:52.404Z,19.67
2018-09-05T04:08:20.618Z,19.53
2018-09-05T04:10:48.849Z,20.33
2018-09-05T04:13:17.264Z,18.00
2018-09-05T04:15:45.747Z,19.83
2018-09-05T04:18:14.142Z,20.57
2018-09-05T04:20:42.887Z,17.77
2018-09-05T04:23:11.148Z,19.57
2018-09-05T04:25:39.351Z,17.97
2018-09-05T04:28:07.618Z,19.37
2018-09-05T04:30:35.861Z,18.77
2018-09-05T04:33:04.098Z,19.47
2018-09-05T04:35:32.300Z,19.93
2018-09-05T04:38:00.623Z,19.37
2018-09-05T04:40:28.826Z,20.23
2018-09-05T04:42:56.999Z,19.10
2018-09-05T04:45:25.200Z,18.60
2018-09-05T04:47:53.384Z,19.80
2018-09-05T04:50:21.581Z,21.10
2018-09-05T04:52:49.761Z,19.67
2018-09-05T04:55:18.100Z,21.00
2018-09-05T04:57:46.290Z,21.33
2018-09-05T05:00:14.475Z,20.40
2018-09-05T05:02:42.681Z,21.50
2018-09-05T05:05:10.916Z,21.50
2018-09-05T05:07:39.123Z,22.13
2018-09-05T05:10:07.338Z,22.17
2018-09-05T05:12:35.600Z,23.90
2018-09-05T05:15:03.791Z,22.67
2018-09-05T05:17:33.434Z,21.43
2018-09-05T05:20:01.635Z,20.83
2018-09-05T05:22:29.874Z,21.00
2018-09-05T05:24:58.088Z,20.20
2018-09-05T05:27:26.291Z,19.97
2018-09-05T05:29:54.512Z,22.53
2018-09-05T05:32:22.723Z,20.57
2018-09-05T05:34:50.913Z,20.73
2018-09-05T05:37:19.176Z,23.13
2018-09-05T05:39:47.392Z,21.67
2018-09-05T05:42:15.650Z,22.07
2018-09-05T05:44:43.882Z,21.70
2018-09-05T05:47:12.064Z,22.33
2018-09-05T05:49:40.264Z,22.20
2018-09-05T05:52:08.517Z,21.27
2018-09-05T05:54:36.735Z,20.97
2018-09-05T05:57:05.254Z,21.90
2018-09-05T05:59:33.502Z,20.43
2018-09-05T06:02:01.768Z,21.13
2018-09-05T06:04:30.061Z,20.40
2018-09-05T06:06:58.301Z,22.03
2018-09-05T06:09:26.475Z,21.00
2018-09-05T06:11:54.771Z,23.90
2018-09-05T06:14:23.006Z,20.93
2018-09-05T06:16:51.162Z,21.73
2018-09-05T06:19:19.344Z,20.80
2018-09-05T06:21:47.665Z,20.70
2018-09-05T06:24:15.849Z,22.93
2018-09-05T06:26:44.053Z,24.27
2018-09-05T06:29:12.359Z,21.87
2018-09-05T06:31:40.615Z,22.80
2018-09-05T06:34:08.946Z,22.93
2018-09-05T06:36:37.295Z,20.30
2018-09-05T06:39:08.507Z,21.10
2018-09-05T06:41:36.946Z,24.40
2018-09-05T06:44:05.214Z,22.57
2018-09-05T06:46:33.466Z,19.80
2018-09-05T06:49:01.869Z,21.50
2018-09-05T06:51:30.182Z,18.77
2018-09-05T06:53:58.376Z,19.47
2018-09-05T06:56:26.570Z,19.90
2018-09-05T06:58:54.780Z,20.10
2018-09-05T07:01:23.161Z,21.73
2018-09-05T07:03:51.417Z,18.60
2018-09-05T07:06:19.641Z,18.50
2018-09-05T07:08:48.044Z,20.00
2018-09-05T07:11:16.174Z,24.40
2018-09-05T07:13:44.379Z,19.52
2018-09-05T07:16:12.759Z,19.20
2018-09-05T07:18:40.927Z,23.18
2018-09-05T07:21:09.134Z,20.15
2018-09-05T07:23:37.539Z,19.35
2018-09-05T07:26:05.888Z,21.50
2018-09-05T07:28:34.076Z,20.88
2018-09-05T07:31:02.486Z,18.55
2018-09-05T07:33:30.902Z,21.52
2018-09-05T07:35:59.190Z,22.13
2018-09-05T07:38:27.432Z,20.15
2018-09-05T07:40:55.626Z,20.02
2018-09-05T07:43:23.885Z,22.67
2018-09-05T07:45:52.078Z,23.62
2018-09-05T07:48:20.317Z,19.73
2018-09-05T07:50:48.543Z,19.67
2018-09-05T07:53:16.752Z,24.18
2018-09-05T07:55:44.948Z,21.90
2018-09-05T07:58:13.135Z,18.82
2018-09-05T08:00:41.313Z,20.10
2018-09-05T08:03:09.498Z,20.97
2018-09-05T08:05:37.743Z,19.17
2018-09-05T08:08:05.999Z,19.73
2018-09-05T08:10:34.160Z,18.95
2018-09-05T08:13:02.578Z,19.60
2018-09-05T08:15:30.789Z,19.02
2018-09-05T08:17:59.061Z,20.45
2018-09-05T08:20:27.200Z,20.95
2018-09-05T08:22:55.389Z,18.07
2018-09-05T08:25:23.558Z,21.07
2018-09-05T08:27:51.758Z,22.05
2018-09-05T08:30:19.970Z,21.10
2018-09-05T08:32:48.180Z,20.08
2018-09-05T08:35:16.689Z,20.60
2018-09-05T08:37:44.781Z,20.12
2018-09-05T08:40:12.939Z,18.37
2018-09-05T08:42:41.152Z,19.40
2018-09-05T08:45:09.632Z,18.20
2018-09-05T08:47:37.635Z,20.57
2018-09-05T08:50:05.899Z,20.20
2018-09-05T08:52:34.492Z,17.27
2018-09-05T08:55:02.701Z,18.80
2018-09-05T08:57:30.876Z,19.67
2018-09-05T08:59:59.168Z,17.15
2018-09-05T09:02:27.389Z,16.32
2018-09-05T09:04:55.741Z,18.42
2018-09-05T09:07:23.904Z,19.40
2018-09-05T09:09:52.079Z,15.08
2018-09-05T09:12:20.926Z,16.62
2018-09-05T09:14:49.168Z,20.17
2018-09-05T09:17:17.354Z,16.32
2018-09-05T09:19:45.625Z,14.78
2018-09-05T09:22:13.779Z,16.93
2018-09-05T09:24:41.978Z,14.90
2018-09-05T09:27:10.203Z,17.15
2018-09-05T09:29:38.416Z,14.87
2018-09-05T09:32:06.669Z,16.35
2018-09-05T09:34:34.961Z,14.10
2018-09-05T09:37:03.144Z,15.68
2018-09-05T09:39:31.416Z,15.83
2018-09-05T09:41:59.648Z,16.10
2018-09-05T09:44:27.896Z,14.87
2018-09-05T09:46:56.113Z,16.25
2018-09-05T09:49:24.303Z,17.95
2018-09-05T09:51:56.756Z,17.70
2018-09-05T09:54:24.971Z,14.60
2018-09-05T09:56:53.211Z,18.57
2018-09-05T09:59:21.408Z,19.90
2018-09-05T10:01:54.969Z,14.35
2018-09-05T10:04:28.723Z,13.70
2018-09-05T10:07:02.452Z,14.90
2018-09-05T10:09:33.536Z,13.20
2018-09-05T10:12:07.255Z,13.95
2018-09-05T10:14:35.576Z,13.85
2018-09-05T10:17:09.371Z,15.32
2018-09-05T10:19:37.562Z,15.70
2018-09-05T10:22:05.771Z,13.58
2018-09-05T10:24:33.983Z,15.00
2018-09-05T10:27:02.209Z,14.33
2018-09-05T10:29:30.421Z,14.53
2018-09-05T10:31:58.632Z,15.00
2018-09-05T10:34:26.837Z,17.37
2018-09-05T10:36:55.083Z,17.40
2018-09-05T10:39:23.396Z,15.28
2018-09-05T10:41:51.618Z,16.20
2018-09-05T10:44:19.913Z,14.13
2018-09-05T10:46:48.075Z,15.05
2018-09-05T10:49:16.274Z,19.00
2018-09-05T10:51:49.927Z,14.47
2018-09-05T10:54:18.086Z,15.95
2018-09-05T10:56:46.272Z,14.68
2018-09-05T10:59:14.558Z,13.98
2018-09-05T11:01:42.791Z,13.43
2018-09-05T11:04:11.168Z,17.73
2018-09-05T11:06:39.345Z,14.90
2018-09-05T11:09:09.931Z,14.18
2018-09-05T11:11:38.345Z,14.25
2018-09-05T11:14:07.030Z,15.60
2018-09-05T11:16:35.278Z,15.15
2018-09-05T11:19:03.475Z,17.35
2018-09-05T11:21:31.718Z,16.80
2018-09-05T11:23:59.962Z,13.78
2018-09-05T11:26:28.216Z,14.15
2018-09-05T11:28:57.104Z,17.12
2018-09-05T11:31:25.341Z,14.78
2018-09-05T11:33:53.729Z,16.23
2018-09-05T11:36:22.378Z,18.25
2018-09-05T11:38:50.566Z,14.23
2018-09-05T11:41:18.798Z,16.75
2018-09-05T11:43:47.239Z,16.97
2018-09-05T11:46:15.551Z,15.03
2018-09-05T11:48:43.836Z,16.73
2018-09-05T11:51:12.088Z,15.85
2018-09-05T11:53:40.588Z,13.75
2018-09-05T11:56:09.309Z,13.62
2018-09-05T11:58:37.709Z,14.50
2018-09-05T12:01:05.941Z,14.03
2018-09-05T12:03:34.154Z,15.18
2018-09-05T12:06:02.697Z,15.25
2018-09-05T12:08:30.914Z,13.90
2018-09-05T12:10:59.207Z,14.23
2018-09-05T12:13:27.564Z,13.35
2018-09-05T12:15:55.762Z,13.20
2018-09-05T12:18:23.967Z,14.50
2018-09-05T12:20:52.189Z,16.05
2018-09-05T12:23:20.418Z,13.40
2018-09-05T12:25:48.606Z,13.60
2018-09-05T12:28:16.860Z,12.10
2018-09-05T12:30:45.156Z,11.90
2018-09-05T12:33:13.347Z,12.93
2018-09-05T12:35:41.597Z,15.38
2018-09-05T12:38:09.807Z,12.20
2018-09-05T12:40:38.025Z,12.47
2018-09-05T12:43:06.376Z,13.50
2018-09-05T12:45:34.579Z,13.95
2018-09-05T12:48:02.780Z,15.15
2018-09-05T12:50:30.986Z,13.05
2018-09-05T12:52:59.197Z,14.78
2018-09-05T12:55:27.381Z,12.63
2018-09-05T12:57:55.610Z,14.50
2018-09-05T13:00:23.852Z,13.75
2018-09-05T13:02:52.048Z,15.72
2018-09-05T13:05:20.268Z,13.03
2018-09-05T13:07:48.507Z,12.53
2018-09-05T13:10:16.696Z,12.00
2018-09-05T13:12:44.879Z,12.40
2018-09-05T13:15:13.131Z,10.50
2018-09-05T13:17:41.340Z,13.40
2018-09-05T13:20:09.537Z,11.68
2018-09-05T13:22:38.380Z,14.20
2018-09-05T13:25:06.608Z,12.58
2018-09-05T13:27:34.824Z,12.15
2018-09-05T13:30:03.106Z,11.53
2018-09-05T13:32:31.297Z,10.78
2018-09-05T13:34:59.503Z,11.75
2018-09-05T13:37:27.722Z,10.10
2018-09-05T13:39:55.935Z,10.88
2018-09-05T13:42:24.189Z,11.78
2018-09-05T13:44:52.376Z,10.43
2018-09-05T13:47:20.605Z,12.10
2018-09-05T13:49:48.827Z,10.35
2018-09-05T13:52:19.550Z,10.35
2018-09-05T13:54:47.737Z,10.60
2018-09-05T13:57:15.989Z,11.80
2018-09-05T13:59:44.578Z,9.98
2018-09-05T14:02:12.751Z,11.00
2018-09-05T14:04:40.972Z,13.40
2018-09-05T14:07:09.234Z,10.05
2018-09-05T14:09:37.457Z,14.23
2018-09-05T14:12:05.884Z,11.28
2018-09-05T14:14:34.120Z,11.55
2018-09-05T14:17:02.379Z,10.95
2018-09-05T14:19:30.639Z,11.12
2018-09-05T14:21:58.841Z,11.03
2018-09-05T14:24:27.050Z,10.90
2018-09-05T14:26:55.287Z,12.70
2018-09-05T14:29:23.524Z,11.35
2018-09-05T14:31:51.755Z,10.58
2018-09-05T14:34:19.936Z,15.88
2018-09-05T14:36:48.191Z,10.78
2018-09-05T14:39:16.432Z,11.25
2018-09-05T14:41:44.676Z,11.88
2018-09-05T14:44:12.950Z,10.75
2018-09-05T14:46:41.176Z,12.47
2018-09-05T14:49:09.369Z,12.85
2018-09-05T14:51:37.528Z,11.73
2018-09-05T14:54:05.817Z,11.40
2018-09-05T14:56:34.000Z,11.70
2018-09-05T14:59:02.285Z,11.73
2018-09-05T15:01:30.497Z,11.45
2018-09-05T15:03:58.786Z,10.35
2018-09-05T15:06:26.973Z,12.23
2018-09-05T15:08:55.196Z,10.70
2018-09-05T15:11:23.431Z,10.55
2018-09-05T15:13:51.655Z,9.78
2018-09-05T15:16:19.799Z,11.05
2018-09-05T15:18:48.171Z,10.85
2018-09-05T15:21:16.382Z,12.28
2018-09-05T15:23:44.677Z,11.45
2018-09-05T15:26:12.912Z,11.20
2018-09-05T15:28:41.263Z,11.90
2018-09-05T15:31:09.426Z,12.40
2018-09-05T15:33:37.694Z,12.37
2018-09-05T15:36:05.986Z,12.93
2018-09-05T15:38:34.197Z,11.78
2018-09-05T15:41:02.429Z,12.50
2018-09-05T15:43:30.696Z,14.03
2018-09-05T15:45:58.947Z,11.48
2018-09-05T15:48:27.176Z,11.12
2018-09-05T15:50:55.372Z,10.85
2018-09-05T15:53:23.577Z,10.90
2018-09-05T15:55:51.802Z,11.55
2018-09-05T15:58:20.118Z,10.30
2018-09-05T16:00:48.298Z,11.55
2018-09-05T16:03:16.515Z,13.18
2018-09-05T16:05:44.754Z,10.93
2018-09-05T16:08:12.993Z,10.90
2018-09-05T16:10:41.159Z,11.33
2018-09-05T16:13:09.333Z,10.82
2018-09-05T16:15:37.749Z,9.53
2018-09-05T16:18:05.841Z,11.30
2018-09-05T16:20:34.338Z,10.05
2018-09-05T16:23:02.556Z,10.50
2018-09-05T16:25:30.942Z,10.63
2018-09-05T16:27:59.232Z,11.85
2018-09-05T16:30:27.429Z,9.93
2018-09-05T16:32:55.659Z,10.50
2018-09-05T16:35:23.948Z,10.20
2018-09-05T16:37:52.120Z,13.32
2018-09-05T16:40:20.366Z,12.03
2018-09-05T16:42:48.601Z,11.80
2018-09-05T16:45:17.063Z,12.63
2018-09-05T16:47:45.328Z,12.65
2018-09-05T16:50:13.629Z,10.72
2018-09-05T16:52:41.852Z,12.50
2018-09-05T16:55:10.048Z,12.53
2018-09-05T16:57:38.303Z,15.55
2018-09-05T17:00:06.722Z,11.85
2018-09-05T17:02:34.974Z,11.75
2018-09-05T17:05:03.187Z,12.00
2018-09-05T17:07:31.426Z,14.15
2018-09-05T17:09:59.660Z,15.93
2018-09-05T17:12:27.824Z,11.60
2018-09-05T17:14:56.128Z,11.95
2018-09-05T17:17:24.317Z,11.30
2018-09-05T17:19:52.601Z,10.38
2018-09-05T17:22:20.887Z,9.85
2018-09-05T17:24:49.029Z,12.47
2018-09-05T17:27:17.303Z,12.98
2018-09-05T17:29:45.469Z,10.58
2018-09-05T17:32:13.738Z,10.23
2018-09-05T17:34:42.087Z,11.22
2018-09-05T17:37:11.167Z,9.90
2018-09-05T17:39:39.391Z,12.07
2018-09-05T17:42:07.700Z,11.18
2018-09-05T17:44:35.895Z,9.40
2018-09-05T17:47:04.134Z,13.50
2018-09-05T17:49:32.396Z,14.18
2018-09-05T17:52:00.632Z,13.85
2018-09-05T17:54:28.820Z,10.68
2018-09-05T17:56:57.060Z,11.12
2018-09-05T17:59:25.252Z,12.37
2018-09-05T18:01:53.541Z,12.13
2018-09-05T18:04:21.760Z,10.35
2018-09-05T18:06:49.975Z,11.43
2018-09-05T18:09:18.182Z,11.68
2018-09-05T18:11:46.457Z,10.40
2018-09-05T18:14:14.652Z,10.08
2018-09-05T18:16:42.965Z,13.65
2018-09-05T18:19:11.156Z,9.63
2018-09-05T18:21:39.391Z,13.60
2018-09-05T18:24:07.612Z,13.22
2018-09-05T18:26:35.772Z,12.13
2018-09-05T18:29:03.929Z,15.05
2018-09-05T18:31:32.149Z,11.83
2018-09-05T18:34:00.317Z,13.35
2018-09-05T18:36:28.607Z,10.65
2018-09-05T18:38:56.871Z,10.55
2018-09-05T18:41:25.018Z,10.93
2018-09-05T18:43:53.260Z,14.63
2018-09-05T18:46:21.447Z,11.78
2018-09-05T18:48:49.688Z,10.88
2018-09-05T18:51:17.947Z,11.22
2018-09-05T18:53:46.121Z,15.03
2018-09-05T18:56:14.285Z,13.45
2018-09-05T18:58:42.453Z,13.48
2018-09-05T19:01:10.689Z,12.07
2018-09-05T19:03:38.951Z,11.97
2018-09-05T19:06:07.184Z,13.75
2018-09-05T19:08:35.494Z,12.50
2018-09-05T19:11:03.720Z,12.43
2018-09-05T19:13:32.045Z,11.40
2018-09-05T19:16:00.333Z,16.07
2018-09-05T19:18:28.673Z,15.70
2018-09-05T19:20:56.947Z,12.98
2018-09-05T19:23:25.190Z,15.32
2018-09-05T19:25:53.403Z,11.97
2018-09-05T19:28:21.654Z,13.05
2018-09-05T19:30:49.864Z,11.65
2018-09-05T19:33:18.159Z,13.70
2018-09-05T19:35:46.415Z,14.65
2018-09-05T19:38:14.618Z,15.20
2018-09-05T19:40:42.848Z,15.75
2018-09-05T19:43:11.087Z,12.82
2018-09-05T19:45:39.361Z,13.03
2018-09-05T19:48:07.603Z,15.50
2018-09-05T19:50:35.885Z,15.72
2018-09-05T19:53:04.163Z,15.45
2018-09-05T19:55:32.415Z,22.00
2018-09-05T19:58:00.631Z,13.80
2018-09-05T20:00:28.905Z,13.90
2018-09-05T20:02:57.184Z,13.65
2018-09-05T20:05:25.436Z,16.23
2018-09-05T20:07:53.717Z,14.25
2018-09-05T20:10:22.477Z,14.20
2018-09-05T20:12:50.710Z,16.25
2018-09-05T20:15:19.141Z,16.37
2018-09-05T20:17:47.343Z,16.52
2018-09-05T20:20:15.597Z,13.93
2018-09-05T20:22:43.883Z,15.40
2018-09-05T20:25:12.319Z,15.05
2018-09-05T20:27:40.650Z,14.38
2018-09-05T20:30:08.979Z,15.45
2018-09-05T20:32:37.217Z,24.98
2018-09-05T20:35:05.565Z,20.25
2018-09-05T20:37:33.859Z,18.30
2018-09-05T20:40:02.151Z,15.60
2018-09-05T20:42:30.330Z,15.88
2018-09-05T20:44:58.570Z,17.07
2018-09-05T20:47:26.805Z,19.77
2018-09-05T20:49:55.065Z,18.40
2018-09-05T20:52:23.368Z,17.12
2018-09-05T20:54:51.615Z,17.80
2018-09-05T20:57:19.825Z,16.87
2018-09-05T20:59:48.040Z,16.05
2018-09-05T21:02:16.218Z,18.48
2018-09-05T21:04:44.457Z,18.45
2018-09-05T21:07:12.642Z,15.80
2018-09-05T21:09:40.854Z,18.10
2018-09-05T21:12:09.033Z,16.20
2018-09-05T21:14:37.244Z,22.07
2018-09-05T21:17:05.550Z,17.10
2018-09-05T21:19:33.813Z,17.95
2018-09-05T21:22:02.005Z,19.12
2018-09-05T21:24:30.182Z,17.15
2018-09-05T21:26:58.397Z,18.00
2018-09-05T21:29:26.632Z,16.65
2018-09-05T21:31:54.899Z,16.50
2018-09-05T21:34:23.166Z,17.12
2018-09-05T21:36:51.368Z,17.32
2018-09-05T21:39:19.641Z,16.35
2018-09-05T21:41:47.923Z,17.85
2018-09-05T21:44:16.089Z,18.20
2018-09-05T21:46:44.317Z,20.75
2018-09-05T21:49:12.546Z,24.98
2018-09-05T21:51:40.703Z,22.55
2018-09-05T21:54:09.084Z,19.52
2018-09-05T21:56:37.267Z,18.80
2018-09-05T21:59:05.878Z,19.17
2018-09-05T22:01:34.110Z,21.57
2018-09-05T22:04:02.264Z,18.45
2018-09-05T22:06:30.498Z,18.65
2018-09-05T22:08:58.672Z,22.70
2018-09-05T22:11:27.563Z,21.17
2018-09-05T22:13:56.296Z,20.80
2018-09-05T22:16:24.725Z,21.15
2018-09-05T22:18:53.075Z,22.95
2018-09-05T22:21:21.313Z,20.35
2018-09-05T22:23:49.496Z,20.57
2018-09-05T22:26:17.692Z,25.65
2018-09-05T22:28:45.892Z,24.60
2018-09-05T22:31:14.101Z,27.10
2018-09-05T22:33:42.274Z,28.38
2018-09-05T22:36:10.556Z,34.08
2018-09-05T22:38:38.764Z,32.60
2018-09-05T22:41:07.020Z,33.13
2018-09-05T22:43:46.608Z,34.33
2018-09-05T22:46:26.432Z,38.30
2018-09-05T22:50:12.665Z,38.63
2018-09-05T22:53:02.993Z,32.50
2018-09-05T22:55:47.668Z,34.10
2018-09-05T22:58:27.406Z,34.10
2018-09-05T23:01:11.897Z,32.65
2018-09-05T23:05:58.341Z,31.00
2018-09-05T23:08:37.250Z,32.85
2018-09-05T23:11:17.211Z,34.20
2018-09-05T23:14:01.401Z,29.20
2018-09-05T23:16:41.502Z,37.35
2018-09-05T23:19:36.689Z,34.85
2018-09-05T23:22:04.922Z,31.90
2018-09-05T23:24:33.118Z,32.20
2018-09-05T23:27:01.384Z,37.45
2018-09-05T23:29:29.560Z,33.48
2018-09-05T23:31:57.792Z,35.68
2018-09-05T23:34:26.004Z,35.40
2018-09-05T23:36:54.173Z,34.45
2018-09-05T23:39:22.423Z,35.38
2018-09-05T23:41:50.699Z,32.03
2018-09-05T23:44:18.882Z,33.60
2018-09-05T23:46:47.068Z,32.10
2018-09-05T23:49:15.336Z,32.23
2018-09-05T23:51:43.569Z,32.20
2018-09-05T23:54:11.844Z,30.85
2018-09-05T23:56:40.044Z,27.62
2018-09-05T23:59:08.259Z,30.02
